createdAt,value
2022-08-28T00:00:39.081Z,73.25
2022-08-28T00:03:07.907Z,72.07
2022-08-28T00:05:35.396Z,73.32
2022-08-28T00:08:02.911Z,71.30
2022-08-28T00:10:30.480Z,72.03
2022-08-28T00:17:05.912Z,74.60
2022-08-28T00:19:38.428Z,73.93
2022-08-28T00:22:07.595Z,73.25
2022-08-28T00:24:38.525Z,72.45
2022-08-28T00:27:24.916Z,80.97
2022-08-28T00:29:52.402Z,78.32
2022-08-28T00:32:22.622Z,83.65
2022-08-28T00:36:05.794Z,89.35
2022-08-28T00:38:33.288Z,91.00
2022-08-28T00:41:04.914Z,92.00
2022-08-28T00:46:18.930Z,91.18
2022-08-28T00:48:47.008Z,99.70
2022-08-28T00:51:36.863Z,96.40
2022-08-28T00:54:07.711Z,103.55
2022-08-28T00:56:38.376Z,117.28
2022-08-28T00:59:09.680Z,108.28
2022-08-28T01:01:39.476Z,115.55
2022-08-28T01:04:09.733Z,112.97
2022-08-28T01:06:37.899Z,113.80
2022-08-28T01:09:06.612Z,115.32
2022-08-28T01:11:34.446Z,115.70
2022-08-28T01:14:02.965Z,114.32
2022-08-28T01:16:33.768Z,120.70
2022-08-28T01:19:05.007Z,114.50
2022-08-28T01:21:56.533Z,112.50
2022-08-28T01:24:29.313Z,110.70
2022-08-28T01:26:56.557Z,114.97
2022-08-28T01:29:24.533Z,108.75
2022-08-28T01:31:51.886Z,107.60
2022-08-28T01:34:20.381Z,112.80
2022-08-28T01:36:48.737Z,105.82
2022-08-28T01:39:22.660Z,114.68
2022-08-28T01:41:55.748Z,106.78
2022-08-28T01:44:27.306Z,108.18
2022-08-28T01:46:57.515Z,107.97
2022-08-28T01:49:26.010Z,104.75
2022-08-28T01:51:54.753Z,99.32
2022-08-28T01:55:39.161Z,103.75
2022-08-28T01:58:07.901Z,100.95
2022-08-28T02:00:36.082Z,107.10
2022-08-28T02:03:04.385Z,100.72
2022-08-28T02:05:33.380Z,106.25
2022-08-28T02:08:03.012Z,99.75
2022-08-28T02:10:33.489Z,105.82
2022-08-28T02:13:02.039Z,103.82
2022-08-28T02:15:32.425Z,102.35
2022-08-28T02:18:02.313Z,98.95
2022-08-28T02:20:29.978Z,95.95
2022-08-28T02:22:58.840Z,87.90
2022-08-28T02:25:27.830Z,94.32
2022-08-28T02:27:58.352Z,92.93
2022-08-28T02:30:26.211Z,86.57
2022-08-28T02:32:54.134Z,87.50
2022-08-28T02:35:24.509Z,84.57
2022-08-28T02:37:54.491Z,87.38
2022-08-28T02:40:24.896Z,81.32
2022-08-28T02:42:52.665Z,90.82
2022-08-28T02:45:20.944Z,90.15
2022-08-28T02:47:48.652Z,82.78
2022-08-28T02:50:17.930Z,85.50
2022-08-28T02:52:45.251Z,78.32
2022-08-28T02:55:15.402Z,82.25
2022-08-28T02:57:43.051Z,77.82
2022-08-28T03:00:14.595Z,80.53
2022-08-28T03:02:46.405Z,82.90
2022-08-28T03:05:16.563Z,81.47
2022-08-28T03:07:44.259Z,87.28
2022-08-28T03:10:12.025Z,78.00
2022-08-28T03:12:39.762Z,80.68
2022-08-28T03:15:08.027Z,82.40
2022-08-28T03:17:39.806Z,83.35
2022-08-28T03:20:12.271Z,80.45
2022-08-28T03:23:00.719Z,86.63
2022-08-28T03:25:29.008Z,86.03
2022-08-28T03:27:56.798Z,80.68
2022-08-28T03:30:29.513Z,88.53
2022-08-28T03:33:25.643Z,83.50
2022-08-28T03:35:54.047Z,86.70
2022-08-28T03:38:22.730Z,84.03
2022-08-28T03:40:53.783Z,83.13
2022-08-28T03:43:24.924Z,85.82
2022-08-28T03:45:59.086Z,83.65
2022-08-28T03:48:29.118Z,78.45
2022-08-28T03:50:57.006Z,85.97
2022-08-28T03:53:29.400Z,86.60
2022-08-28T03:55:58.489Z,84.75
2022-08-28T03:58:26.831Z,83.50
2022-08-28T04:00:55.717Z,85.95
2022-08-28T04:03:27.127Z,83.32
2022-08-28T04:05:54.749Z,74.93
2022-08-28T04:08:23.763Z,83.50
2022-08-28T04:10:52.109Z,84.95
2022-08-28T04:13:21.659Z,82.00
2022-08-28T04:16:10.908Z,81.63
2022-08-28T04:18:40.384Z,78.50
2022-08-28T04:21:13.640Z,78.22
2022-08-28T04:23:43.796Z,79.75
2022-08-28T04:26:18.595Z,82.32
2022-08-28T04:28:47.056Z,80.25
2022-08-28T04:31:15.199Z,79.30
2022-08-28T04:33:44.116Z,86.30
2022-08-28T04:36:16.394Z,82.75
2022-08-28T04:38:44.306Z,78.45
2022-08-28T04:41:14.594Z,76.65
2022-08-28T04:43:44.489Z,82.72
2022-08-28T04:46:14.425Z,79.68
2022-08-28T04:48:44.642Z,77.65
2022-08-28T04:51:15.273Z,80.63
2022-08-28T04:53:43.786Z,84.53
2022-08-28T04:56:13.529Z,81.88
2022-08-28T04:58:42.459Z,77.90
2022-08-28T05:01:14.370Z,82.65
2022-08-28T05:03:42.018Z,84.60
2022-08-28T05:06:09.573Z,79.20
2022-08-28T05:08:36.964Z,81.63
2022-08-28T05:11:22.071Z,79.55
2022-08-28T05:14:13.917Z,80.03
2022-08-28T05:16:46.367Z,75.55
2022-08-28T05:19:15.691Z,81.20
2022-08-28T05:21:42.986Z,82.93
2022-08-28T05:24:11.119Z,88.53
2022-08-28T05:26:40.090Z,83.68
2022-08-28T05:29:11.416Z,78.25
2022-08-28T05:31:41.713Z,79.18
2022-08-28T05:34:12.095Z,76.57
2022-08-28T05:36:48.954Z,76.43
2022-08-28T05:39:20.029Z,77.03
2022-08-28T05:41:57.835Z,81.07
2022-08-28T05:44:28.859Z,77.38
2022-08-28T05:46:56.862Z,80.13
2022-08-28T05:49:25.538Z,98.38
2022-08-28T05:51:52.994Z,86.80
2022-08-28T05:54:20.632Z,77.55
2022-08-28T05:56:48.294Z,81.15
2022-08-28T05:59:18.787Z,84.43
2022-08-28T06:01:49.799Z,83.78
2022-08-28T06:04:41.692Z,80.00
2022-08-28T06:07:16.067Z,87.97
2022-08-28T06:10:07.780Z,74.22
2022-08-28T06:12:43.854Z,83.45
2022-08-28T06:15:16.837Z,85.63
2022-08-28T06:17:46.698Z,85.13
2022-08-28T06:20:19.646Z,85.68
2022-08-28T06:22:49.840Z,92.47
2022-08-28T06:25:20.637Z,81.60
2022-08-28T06:27:52.921Z,84.78
2022-08-28T06:31:08.874Z,84.07
2022-08-28T06:33:30.022Z,81.90
2022-08-28T06:36:12.779Z,82.65
2022-08-28T06:38:46.963Z,83.32
2022-08-28T06:41:35.929Z,81.20
2022-08-28T06:44:09.104Z,85.18
2022-08-28T06:47:23.548Z,82.28
2022-08-28T06:50:10.937Z,74.95
2022-08-28T06:52:41.734Z,70.50
2022-08-28T06:55:09.624Z,78.22
2022-08-28T06:57:37.338Z,72.03
2022-08-28T07:00:05.711Z,70.57
2022-08-28T07:02:34.236Z,67.38
2022-08-28T07:05:01.852Z,74.32
2022-08-28T07:07:31.489Z,75.65
2022-08-28T07:09:59.288Z,76.07
2022-08-28T07:12:26.707Z,69.65
2022-08-28T07:14:54.354Z,72.13
2022-08-28T07:17:21.615Z,76.95
2022-08-28T07:19:48.866Z,81.15
2022-08-28T07:22:16.103Z,81.75
2022-08-28T07:24:43.479Z,78.75
2022-08-28T07:27:10.614Z,82.22
2022-08-28T07:29:42.996Z,80.20
2022-08-28T07:32:10.318Z,75.93
2022-08-28T07:34:40.821Z,82.47
2022-08-28T07:37:11.112Z,80.55
2022-08-28T07:39:41.905Z,86.60
2022-08-28T07:42:09.888Z,79.38
2022-08-28T07:44:50.560Z,83.22
2022-08-28T07:47:19.085Z,88.07
2022-08-28T07:49:46.349Z,86.05
2022-08-28T07:52:13.635Z,82.57
2022-08-28T07:54:41.089Z,84.88
2022-08-28T07:57:10.561Z,82.30
2022-08-28T07:59:38.493Z,83.97
2022-08-28T08:02:07.271Z,84.70
2022-08-28T08:04:36.593Z,91.85
2022-08-28T08:07:04.791Z,84.18
2022-08-28T08:09:32.438Z,90.70
2022-08-28T08:12:00.257Z,94.65
2022-08-28T08:14:27.772Z,92.07
2022-08-28T08:16:55.044Z,93.15
2022-08-28T08:19:22.368Z,87.07
2022-08-28T08:21:53.094Z,87.03
2022-08-28T08:24:26.519Z,87.57
2022-08-28T08:27:00.121Z,83.55
2022-08-28T08:29:36.107Z,85.18
2022-08-28T08:32:08.091Z,87.70
2022-08-28T08:34:38.899Z,85.00
2022-08-28T08:37:07.098Z,77.03
2022-08-28T08:39:36.205Z,80.90
2022-08-28T08:42:06.543Z,72.47
2022-08-28T08:44:40.616Z,77.88
2022-08-28T08:47:19.975Z,79.43
2022-08-28T08:49:59.100Z,81.00
2022-08-28T08:52:38.942Z,80.43
2022-08-28T08:55:16.381Z,68.22
2022-08-28T08:57:49.354Z,66.05
2022-08-28T09:00:18.098Z,76.22
2022-08-28T09:03:04.450Z,69.22
2022-08-28T09:05:47.296Z,70.75
2022-08-28T09:08:25.753Z,66.82
2022-08-28T09:11:07.463Z,65.60
2022-08-28T09:13:50.517Z,71.28
2022-08-28T09:16:27.149Z,73.28
2022-08-28T09:18:57.680Z,71.80
2022-08-28T09:21:32.450Z,75.03
2022-08-28T09:24:05.709Z,64.85
2022-08-28T09:26:34.936Z,68.30
2022-08-28T09:29:06.244Z,57.08
2022-08-28T09:31:37.507Z,67.13
2022-08-28T09:34:38.154Z,58.90
2022-08-28T09:37:08.517Z,54.42
2022-08-28T09:39:38.908Z,48.80
2022-08-28T09:42:27.748Z,42.50
2022-08-28T09:45:18.853Z,43.85
2022-08-28T09:47:50.827Z,41.65
2022-08-28T09:50:24.457Z,39.53
2022-08-28T09:52:54.115Z,40.63
2022-08-28T09:55:43.405Z,38.05
2022-08-28T09:58:10.887Z,35.78
2022-08-28T10:03:31.044Z,39.58
2022-08-28T10:06:33.195Z,39.83
2022-08-28T10:09:18.123Z,37.00
2022-08-28T10:11:51.488Z,40.70
2022-08-28T10:14:41.318Z,36.38
2022-08-28T10:20:08.978Z,34.85
2022-08-28T10:23:02.771Z,41.30
2022-08-28T10:25:59.388Z,26.83
2022-08-28T10:29:08.247Z,43.25
2022-08-28T10:32:18.521Z,24.92
2022-08-28T10:34:51.878Z,23.02
2022-08-28T10:37:45.246Z,24.90
2022-08-28T10:40:28.643Z,24.48
2022-08-28T10:43:01.046Z,19.33
2022-08-28T10:45:30.546Z,24.42
2022-08-28T10:48:20.165Z,21.02
2022-08-28T10:50:58.553Z,27.13
2022-08-28T10:53:38.624Z,25.58
2022-08-28T10:56:13.482Z,23.88
2022-08-28T10:58:41.125Z,24.38
2022-08-28T11:01:27.280Z,24.13
2022-08-28T11:03:57.457Z,21.10
2022-08-28T11:06:41.743Z,20.98
2022-08-28T11:09:34.677Z,26.73
2022-08-28T11:12:03.707Z,30.50
2022-08-28T11:14:48.297Z,20.30
2022-08-28T11:17:22.063Z,23.05
2022-08-28T11:20:04.490Z,26.92
2022-08-28T11:22:40.653Z,25.38
2022-08-28T11:25:58.544Z,26.13
2022-08-28T11:28:26.300Z,29.33
2022-08-28T11:31:05.642Z,23.55
2022-08-28T11:33:53.232Z,23.63
2022-08-28T11:36:25.556Z,23.35
2022-08-28T11:38:56.008Z,26.50
2022-08-28T11:41:32.671Z,29.40
2022-08-28T11:44:13.900Z,23.08
2022-08-28T11:46:45.690Z,21.67
2022-08-28T11:49:26.473Z,19.95
2022-08-28T11:52:02.713Z,25.45
2022-08-28T11:54:57.835Z,28.38
2022-08-28T11:57:44.039Z,25.98
2022-08-28T12:00:40.634Z,22.45
2022-08-28T12:03:16.923Z,24.90
2022-08-28T12:05:50.871Z,25.02
2022-08-28T12:08:49.017Z,24.35
2022-08-28T12:11:41.055Z,27.55
2022-08-28T12:14:28.496Z,29.73
2022-08-28T12:16:58.715Z,29.95
2022-08-28T12:19:35.282Z,26.88
2022-08-28T12:22:21.582Z,34.53
2022-08-28T12:24:59.599Z,25.73
2022-08-28T12:27:28.936Z,34.35
2022-08-28T12:29:59.094Z,27.08
2022-08-28T12:32:41.183Z,22.90
2022-08-28T12:35:19.608Z,24.15
2022-08-28T12:37:51.543Z,24.83
2022-08-28T12:40:50.611Z,21.95
2022-08-28T12:43:31.446Z,26.40
2022-08-28T12:46:04.319Z,22.45
2022-08-28T12:49:00.203Z,28.88
2022-08-28T12:51:33.966Z,28.15
2022-08-28T12:54:05.453Z,31.67
2022-08-28T12:56:36.269Z,32.05
2022-08-28T12:59:33.360Z,27.50
2022-08-28T13:02:10.613Z,32.33
2022-08-28T13:04:42.466Z,27.73
2022-08-28T13:07:14.074Z,28.73
2022-08-28T13:09:50.406Z,27.85
2022-08-28T13:12:55.359Z,28.63
2022-08-28T13:15:49.693Z,27.10
2022-08-28T13:18:35.679Z,32.65
2022-08-28T13:21:30.791Z,32.83
2022-08-28T13:24:22.301Z,26.38
2022-08-28T13:27:20.998Z,22.85
2022-08-28T13:30:10.195Z,25.77
2022-08-28T13:32:39.955Z,24.23
2022-08-28T13:35:14.400Z,24.25
2022-08-28T13:37:45.610Z,23.48
2022-08-28T13:40:36.892Z,24.60
2022-08-28T13:43:07.241Z,25.35
2022-08-28T13:45:43.496Z,27.45
2022-08-28T13:48:16.811Z,27.17
2022-08-28T13:50:47.590Z,29.75
2022-08-28T13:53:46.791Z,25.98
2022-08-28T13:56:14.000Z,28.45
2022-08-28T13:58:41.202Z,23.63
2022-08-28T14:01:08.666Z,23.83
2022-08-28T14:03:36.385Z,20.70
2022-08-28T14:06:12.742Z,23.23
2022-08-28T14:08:45.245Z,23.20
2022-08-28T14:11:15.388Z,31.70
2022-08-28T14:13:47.115Z,27.88
2022-08-28T14:16:24.419Z,26.42
2022-08-28T14:18:53.093Z,24.10
2022-08-28T14:21:20.949Z,31.38
2022-08-28T14:23:48.228Z,24.13
2022-08-28T14:26:15.284Z,20.42
2022-08-28T14:28:42.910Z,25.55
2022-08-28T14:31:14.447Z,21.42
2022-08-28T14:33:45.729Z,22.65
2022-08-28T14:36:26.219Z,25.85
2022-08-28T14:38:54.616Z,30.92
2022-08-28T14:41:23.551Z,24.17
2022-08-28T14:43:55.904Z,31.90
2022-08-28T14:46:31.345Z,25.38
2022-08-28T14:49:01.065Z,40.40
2022-08-28T14:51:31.724Z,28.23
2022-08-28T14:54:00.613Z,40.25
2022-08-28T14:56:29.188Z,37.72
2022-08-28T14:59:01.150Z,39.33
2022-08-28T15:01:40.622Z,41.05
2022-08-28T15:04:12.096Z,41.20
2022-08-28T15:06:40.676Z,35.33
2022-08-28T15:09:09.792Z,36.20
2022-08-28T15:11:37.649Z,33.78
2022-08-28T15:14:06.597Z,36.38
2022-08-28T15:16:36.531Z,41.55
2022-08-28T15:19:04.407Z,40.65
2022-08-28T15:21:38.540Z,36.58
2022-08-28T15:24:07.723Z,47.35
2022-08-28T15:26:34.932Z,53.78
2022-08-28T15:29:02.558Z,45.38
2022-08-28T15:31:34.747Z,46.90
2022-08-28T15:34:13.686Z,48.20
2022-08-28T15:36:42.742Z,46.88
2022-08-28T15:39:29.408Z,46.03
2022-08-28T15:41:57.474Z,49.25
2022-08-28T15:44:25.380Z,46.45
2022-08-28T15:47:05.061Z,53.17
2022-08-28T15:49:38.813Z,45.28
2022-08-28T15:52:13.939Z,49.97
2022-08-28T15:54:42.109Z,46.80
2022-08-28T15:57:09.265Z,54.95
2022-08-28T15:59:39.977Z,52.70
2022-08-28T16:02:19.637Z,62.20
2022-08-28T16:04:47.345Z,62.28
2022-08-28T16:07:14.977Z,55.90
2022-08-28T16:09:42.151Z,55.92
2022-08-28T16:12:09.497Z,56.88
2022-08-28T16:14:39.584Z,56.33
2022-08-28T16:17:11.072Z,59.65
2022-08-28T16:19:40.086Z,56.17
2022-08-28T16:22:08.268Z,56.75
2022-08-28T16:24:35.964Z,60.03
2022-08-28T16:27:03.188Z,60.38
2022-08-28T16:29:30.327Z,61.60
2022-08-28T16:31:57.484Z,55.80
2022-08-28T16:34:30.804Z,61.55
2022-08-28T16:36:59.933Z,59.20
2022-08-28T16:39:27.714Z,61.05
2022-08-28T16:41:55.550Z,58.30
2022-08-28T16:44:26.303Z,60.80
2022-08-28T16:49:21.723Z,65.55
2022-08-28T16:51:48.913Z,61.85
2022-08-28T16:54:18.451Z,67.65
2022-08-28T16:56:46.337Z,70.88
2022-08-28T16:59:21.526Z,70.30
2022-08-28T17:01:53.788Z,72.38
2022-08-28T17:04:22.116Z,69.60
2022-08-28T17:06:49.465Z,71.63
2022-08-28T17:09:16.632Z,73.63
2022-08-28T17:11:52.173Z,81.22
2022-08-28T17:14:23.822Z,77.10
2022-08-28T17:16:52.511Z,84.20
2022-08-28T17:19:21.097Z,78.45
2022-08-28T17:22:06.882Z,90.28
2022-08-28T17:24:36.995Z,86.72
2022-08-28T17:27:05.914Z,89.70
2022-08-28T17:29:38.550Z,94.28
2022-08-28T17:32:07.999Z,88.22
2022-08-28T17:34:37.376Z,95.68
2022-08-28T17:37:05.742Z,92.88
2022-08-28T17:39:33.119Z,99.10
2022-08-28T17:42:00.298Z,106.60
2022-08-28T17:44:27.968Z,92.70
2022-08-28T17:46:55.108Z,109.07
2022-08-28T17:49:22.834Z,109.97
2022-08-28T17:51:50.151Z,112.88
2022-08-28T17:54:21.927Z,119.78
2022-08-28T17:56:49.713Z,120.85
2022-08-28T17:59:17.443Z,123.13
2022-08-28T18:01:45.375Z,127.75
2022-08-28T18:04:14.706Z,119.53
2022-08-28T18:06:41.884Z,126.22
2022-08-28T18:09:10.100Z,123.88
2022-08-28T18:11:37.973Z,126.38
2022-08-28T18:14:06.552Z,119.30
2022-08-28T18:16:35.375Z,123.65
2022-08-28T18:19:05.157Z,123.07
2022-08-28T18:21:32.414Z,98.53
2022-08-28T18:24:02.087Z,119.90
2022-08-28T18:26:29.773Z,126.22
2022-08-28T18:28:57.657Z,123.13
2022-08-28T18:31:25.387Z,125.20
2022-08-28T18:33:54.437Z,127.18
2022-08-28T18:36:23.391Z,125.68
2022-08-28T18:38:51.392Z,119.28
2022-08-28T18:41:20.199Z,113.38
2022-08-28T18:43:48.279Z,110.38
2022-08-28T18:46:16.034Z,108.57
2022-08-28T18:48:43.282Z,107.32
2022-08-28T18:51:12.537Z,108.70
2022-08-28T18:53:43.276Z,109.22
2022-08-28T18:58:40.844Z,92.03
2022-08-28T19:01:09.479Z,105.97
2022-08-28T19:03:37.204Z,95.43
2022-08-28T19:06:07.036Z,100.55
2022-08-28T19:08:36.792Z,92.95
2022-08-28T19:11:14.198Z,94.35
2022-08-28T19:13:41.940Z,92.45
2022-08-28T19:16:09.837Z,86.80
2022-08-28T19:18:37.173Z,86.80
2022-08-28T19:21:10.537Z,90.65
2022-08-28T19:23:47.545Z,91.35
2022-08-28T19:26:23.353Z,86.88
2022-08-28T19:28:50.826Z,88.70
2022-08-28T19:31:18.540Z,74.10
2022-08-28T19:33:47.348Z,85.15
2022-08-28T19:36:14.841Z,88.43
2022-08-28T19:38:43.097Z,78.25
2022-08-28T19:41:11.873Z,82.97
2022-08-28T19:43:43.140Z,74.75
2022-08-28T19:46:20.177Z,74.00
2022-08-28T19:48:52.966Z,77.82
2022-08-28T19:51:23.368Z,79.40
2022-08-28T19:53:58.447Z,75.40
2022-08-28T19:56:33.397Z,74.38
2022-08-28T19:59:02.775Z,76.63
2022-08-28T20:01:33.073Z,62.13
2022-08-28T20:04:20.600Z,70.18
2022-08-28T20:06:48.205Z,71.32
2022-08-28T20:09:16.432Z,67.43
2022-08-28T20:11:47.120Z,69.20
2022-08-28T20:14:16.119Z,67.65
2022-08-28T20:16:45.051Z,71.85
2022-08-28T20:19:13.047Z,66.30
2022-08-28T20:21:44.297Z,65.93
2022-08-28T20:24:17.800Z,68.68
2022-08-28T20:26:45.353Z,67.30
2022-08-28T20:29:13.918Z,66.95
2022-08-28T20:31:44.115Z,69.07
2022-08-28T20:34:12.961Z,66.10
2022-08-28T20:36:40.503Z,65.40
2022-08-28T20:39:09.566Z,57.10
2022-08-28T20:41:39.739Z,60.75
2022-08-28T20:44:10.462Z,52.03
2022-08-28T20:46:41.342Z,54.80
2022-08-28T20:49:14.186Z,54.90
2022-08-28T20:51:59.037Z,55.72
2022-08-28T20:54:46.249Z,61.08
2022-08-28T20:57:17.818Z,57.85
2022-08-28T20:59:46.479Z,58.15
2022-08-28T21:02:17.742Z,59.53
2022-08-28T21:04:46.665Z,60.08
2022-08-28T21:07:16.122Z,53.90
2022-08-28T21:10:05.568Z,59.22
2022-08-28T21:12:30.932Z,66.15
2022-08-28T21:14:58.901Z,56.63
2022-08-28T21:17:29.796Z,52.78
2022-08-28T21:20:00.793Z,60.00
2022-08-28T21:22:29.776Z,59.67
2022-08-28T21:24:57.326Z,55.67
2022-08-28T21:27:25.207Z,58.78
2022-08-28T21:29:56.315Z,55.25
2022-08-28T21:32:23.936Z,57.13
2022-08-28T21:34:52.680Z,62.42
2022-08-28T21:37:20.236Z,60.13
2022-08-28T21:39:47.602Z,57.78
2022-08-28T21:42:14.848Z,64.47
2022-08-28T21:44:48.657Z,57.17
2022-08-28T21:47:20.210Z,57.05
2022-08-28T21:49:52.588Z,67.05
2022-08-28T21:52:22.032Z,60.40
2022-08-28T21:54:50.072Z,64.00
2022-08-28T21:57:18.677Z,66.30
2022-08-28T21:59:45.878Z,66.13
2022-08-28T22:02:13.061Z,62.03
2022-08-28T22:04:40.674Z,66.40
2022-08-28T22:07:09.967Z,68.15
2022-08-28T22:09:38.659Z,64.43
2022-08-28T22:12:06.177Z,71.18
2022-08-28T22:14:33.694Z,59.83
2022-08-28T22:17:01.167Z,66.55
2022-08-28T22:19:28.902Z,64.20
2022-08-28T22:22:14.499Z,63.33
2022-08-28T22:24:42.164Z,65.20
2022-08-28T22:27:13.619Z,66.85
2022-08-28T22:29:41.477Z,68.70
2022-08-28T22:32:09.257Z,67.32
2022-08-28T22:34:45.521Z,65.78
2022-08-28T22:37:13.626Z,68.82
2022-08-28T22:39:41.778Z,66.25
2022-08-28T22:42:10.309Z,72.03
2022-08-28T22:44:38.927Z,71.68
2022-08-28T22:47:06.871Z,72.53
2022-08-28T22:49:34.879Z,72.72
2022-08-28T22:52:10.477Z,74.63
2022-08-28T22:54:38.945Z,78.78
2022-08-28T22:57:06.519Z,74.18
2022-08-28T22:59:34.795Z,64.63
2022-08-28T23:02:03.437Z,70.72
2022-08-28T23:04:32.923Z,65.43
2022-08-28T23:07:00.761Z,67.22
2022-08-28T23:09:28.040Z,73.60
2022-08-28T23:11:55.299Z,71.80
2022-08-28T23:14:28.642Z,70.00
2022-08-28T23:16:56.175Z,71.00
2022-08-28T23:19:23.981Z,77.20
2022-08-28T23:21:51.628Z,68.03
2022-08-28T23:24:19.293Z,67.75
2022-08-28T23:26:47.028Z,64.72
2022-08-28T23:29:15.103Z,76.03
2022-08-28T23:31:42.555Z,74.43
2022-08-28T23:34:16.345Z,70.43
2022-08-28T23:36:44.563Z,76.22
2022-08-28T23:39:12.021Z,71.60
2022-08-28T23:41:40.091Z,70.78
2022-08-28T23:44:09.367Z,65.25
2022-08-28T23:46:37.217Z,69.55
2022-08-28T23:49:10.000Z,70.60
2022-08-28T23:51:37.622Z,70.40
2022-08-28T23:54:05.797Z,75.15
2022-08-28T23:56:33.734Z,69.00
2022-08-28T23:59:01.167Z,72.78
